sensor_id;sensor_type;location;lat;lon;timestamp;pressure;altitude;pressure_sealevel;temperature
44429;BMP180;30134;47.866;-4.222;2024-02-14T00:00:11;101219.00;;;23.70
44429;BMP180;30134;47.866;-4.222;2024-02-14T00:02:46;101222.00;;;23.70
44429;BMP180;30134;47.866;-4.222;2024-02-14T00:05:16;101209.00;;;23.70
44429;BMP180;30134;47.866;-4.222;2024-02-14T00:07:42;101222.00;;;23.70
44429;BMP180;30134;47.866;-4.222;2024-02-14T00:10:10;101231.00;;;23.70
44429;BMP180;30134;47.866;-4.222;2024-02-14T00:12:36;101240.00;;;23.80
44429;BMP180;30134;47.866;-4.222;2024-02-14T00:15:06;101251.00;;;23.70
44429;BMP180;30134;47.866;-4.222;2024-02-14T00:17:33;101254.00;;;23.70
44429;BMP180;30134;47.866;-4.222;2024-02-14T00:20:04;101254.00;;;23.70
44429;BMP180;30134;47.866;-4.222;2024-02-14T00:22:31;101257.00;;;23.70
44429;BMP180;30134;47.866;-4.222;2024-02-14T00:24:57;101264.00;;;23.70
44429;BMP180;30134;47.866;-4.222;2024-02-14T00:27:23;101268.00;;;23.70
44429;BMP180;30134;47.866;-4.222;2024-02-14T00:29:51;101266.00;;;23.80
44429;BMP180;30134;47.866;-4.222;2024-02-14T00:32:19;101269.00;;;23.80
44429;BMP180;30134;47.866;-4.222;2024-02-14T00:34:45;101262.00;;;23.70
44429;BMP180;30134;47.866;-4.222;2024-02-14T00:37:12;101250.00;;;22.90
44429;BMP180;30134;47.866;-4.222;2024-02-14T00:39:38;101248.00;;;21.80
44429;BMP180;30134;47.866;-4.222;2024-02-14T00:42:04;101253.00;;;21.50
44429;BMP180;30134;47.866;-4.222;2024-02-14T00:44:31;101250.00;;;21.20
44429;BMP180;30134;47.866;-4.222;2024-02-14T00:46:58;101240.00;;;21.10
44429;BMP180;30134;47.866;-4.222;2024-02-14T00:49:25;101235.00;;;21.00
44429;BMP180;30134;47.866;-4.222;2024-02-14T00:51:52;101229.00;;;21.00
44429;BMP180;30134;47.866;-4.222;2024-02-14T00:54:18;101248.00;;;20.90
44429;BMP180;30134;47.866;-4.222;2024-02-14T00:56:44;101253.00;;;20.80
44429;BMP180;30134;47.866;-4.222;2024-02-14T00:59:10;101251.00;;;20.70
44429;BMP180;30134;47.866;-4.222;2024-02-14T01:01:36;101245.00;;;20.70
44429;BMP180;30134;47.866;-4.222;2024-02-14T01:04:02;101238.00;;;20.70
44429;BMP180;30134;47.866;-4.222;2024-02-14T01:06:31;101244.00;;;20.60
44429;BMP180;30134;47.866;-4.222;2024-02-14T01:08:57;101236.00;;;20.60
44429;BMP180;30134;47.866;-4.222;2024-02-14T01:11:23;101237.00;;;20.50
44429;BMP180;30134;47.866;-4.222;2024-02-14T01:13:49;101230.00;;;20.50
44429;BMP180;30134;47.866;-4.222;2024-02-14T01:16:15;101229.00;;;20.50
44429;BMP180;30134;47.866;-4.222;2024-02-14T01:18:41;101228.00;;;20.50
44429;BMP180;30134;47.866;-4.222;2024-02-14T01:21:07;101238.00;;;20.40
44429;BMP180;30134;47.866;-4.222;2024-02-14T01:23:33;101237.00;;;20.40
44429;BMP180;30134;47.866;-4.222;2024-02-14T01:25:59;101231.00;;;20.40
44429;BMP180;30134;47.866;-4.222;2024-02-14T01:28:26;101233.00;;;20.40
44429;BMP180;30134;47.866;-4.222;2024-02-14T01:30:52;101231.00;;;20.40
44429;BMP180;30134;47.866;-4.222;2024-02-14T01:33:18;101230.00;;;20.30
44429;BMP180;30134;47.866;-4.222;2024-02-14T01:35:51;101228.00;;;20.30
44429;BMP180;30134;47.866;-4.222;2024-02-14T01:38:17;101229.00;;;20.30
44429;BMP180;30134;47.866;-4.222;2024-02-14T01:40:43;101224.00;;;20.30
44429;BMP180;30134;47.866;-4.222;2024-02-14T01:43:10;101225.00;;;20.30
44429;BMP180;30134;47.866;-4.222;2024-02-14T01:45:37;101229.00;;;20.20
44429;BMP180;30134;47.866;-4.222;2024-02-14T01:48:06;101231.00;;;20.30
44429;BMP180;30134;47.866;-4.222;2024-02-14T01:50:34;101226.00;;;20.20
44429;BMP180;30134;47.866;-4.222;2024-02-14T01:53:01;101222.00;;;20.30
44429;BMP180;30134;47.866;-4.222;2024-02-14T01:55:28;101219.00;;;20.20
44429;BMP180;30134;47.866;-4.222;2024-02-14T01:57:55;101215.00;;;20.10
44429;BMP180;30134;47.866;-4.222;2024-02-14T02:00:21;101204.00;;;20.20
44429;BMP180;30134;47.866;-4.222;2024-02-14T02:02:47;101200.00;;;20.20
44429;BMP180;30134;47.866;-4.222;2024-02-14T02:05:14;101200.00;;;20.10
44429;BMP180;30134;47.866;-4.222;2024-02-14T02:07:41;101200.00;;;20.20
44429;BMP180;30134;47.866;-4.222;2024-02-14T02:10:10;101206.00;;;20.10
44429;BMP180;30134;47.866;-4.222;2024-02-14T02:12:39;101206.00;;;20.20
44429;BMP180;30134;47.866;-4.222;2024-02-14T02:15:07;101215.00;;;20.10
44429;BMP180;30134;47.866;-4.222;2024-02-14T02:17:33;101228.00;;;20.10
44429;BMP180;30134;47.866;-4.222;2024-02-14T02:20:00;101229.00;;;20.10
44429;BMP180;30134;47.866;-4.222;2024-02-14T02:22:27;101233.00;;;20.10
44429;BMP180;30134;47.866;-4.222;2024-02-14T02:24:55;101226.00;;;20.10
44429;BMP180;30134;47.866;-4.222;2024-02-14T02:27:21;101220.00;;;20.10
44429;BMP180;30134;47.866;-4.222;2024-02-14T02:29:47;101215.00;;;20.10
44429;BMP180;30134;47.866;-4.222;2024-02-14T02:32:13;101220.00;;;20.10
44429;BMP180;30134;47.866;-4.222;2024-02-14T02:34:39;101213.00;;;20.10
44429;BMP180;30134;47.866;-4.222;2024-02-14T02:37:05;101205.00;;;20.00
44429;BMP180;30134;47.866;-4.222;2024-02-14T02:39:35;101197.00;;;20.00
44429;BMP180;30134;47.866;-4.222;2024-02-14T02:42:07;101209.00;;;20.10
44429;BMP180;30134;47.866;-4.222;2024-02-14T02:44:38;101215.00;;;20.10
44429;BMP180;30134;47.866;-4.222;2024-02-14T02:47:04;101208.00;;;20.00
44429;BMP180;30134;47.866;-4.222;2024-02-14T02:49:31;101213.00;;;20.10
44429;BMP180;30134;47.866;-4.222;2024-02-14T02:51:57;101201.00;;;20.00
44429;BMP180;30134;47.866;-4.222;2024-02-14T02:54:23;101210.00;;;20.00
44429;BMP180;30134;47.866;-4.222;2024-02-14T02:56:49;101205.00;;;20.00
44429;BMP180;30134;47.866;-4.222;2024-02-14T02:59:16;101207.00;;;20.00
44429;BMP180;30134;47.866;-4.222;2024-02-14T03:01:42;101206.00;;;20.00
44429;BMP180;30134;47.866;-4.222;2024-02-14T03:04:10;101206.00;;;20.00
44429;BMP180;30134;47.866;-4.222;2024-02-14T03:06:36;101210.00;;;20.00
44429;BMP180;30134;47.866;-4.222;2024-02-14T03:09:02;101199.00;;;20.00
44429;BMP180;30134;47.866;-4.222;2024-02-14T03:11:28;101194.00;;;20.00
44429;BMP180;30134;47.866;-4.222;2024-02-14T03:13:54;101195.00;;;20.00
44429;BMP180;30134;47.866;-4.222;2024-02-14T03:16:20;101191.00;;;20.00
44429;BMP180;30134;47.866;-4.222;2024-02-14T03:18:46;101183.00;;;20.00
44429;BMP180;30134;47.866;-4.222;2024-02-14T03:21:12;101187.00;;;20.00
44429;BMP180;30134;47.866;-4.222;2024-02-14T03:23:38;101185.00;;;20.00
44429;BMP180;30134;47.866;-4.222;2024-02-14T03:26:05;101194.00;;;20.10
44429;BMP180;30134;47.866;-4.222;2024-02-14T03:28:33;101191.00;;;20.00
44429;BMP180;30134;47.866;-4.222;2024-02-14T03:30:59;101194.00;;;20.10
44429;BMP180;30134;47.866;-4.222;2024-02-14T03:33:25;101189.00;;;20.10
44429;BMP180;30134;47.866;-4.222;2024-02-14T03:35:58;101194.00;;;20.00
44429;BMP180;30134;47.866;-4.222;2024-02-14T03:38:28;101194.00;;;20.00
44429;BMP180;30134;47.866;-4.222;2024-02-14T03:40:55;101195.00;;;20.00
44429;BMP180;30134;47.866;-4.222;2024-02-14T03:43:21;101200.00;;;20.00
44429;BMP180;30134;47.866;-4.222;2024-02-14T03:45:49;101202.00;;;20.00
44429;BMP180;30134;47.866;-4.222;2024-02-14T03:48:15;101210.00;;;20.10
44429;BMP180;30134;47.866;-4.222;2024-02-14T03:50:41;101198.00;;;20.10
44429;BMP180;30134;47.866;-4.222;2024-02-14T03:53:09;101204.00;;;20.00
44429;BMP180;30134;47.866;-4.222;2024-02-14T03:55:37;101200.00;;;20.00
44429;BMP180;30134;47.866;-4.222;2024-02-14T03:58:03;101193.00;;;20.00
44429;BMP180;30134;47.866;-4.222;2024-02-14T04:00:31;101196.00;;;20.00
44429;BMP180;30134;47.866;-4.222;2024-02-14T04:02:57;101193.00;;;20.00
44429;BMP180;30134;47.866;-4.222;2024-02-14T04:05:26;101197.00;;;20.10
44429;BMP180;30134;47.866;-4.222;2024-02-14T04:07:54;101198.00;;;20.10
44429;BMP180;30134;47.866;-4.222;2024-02-14T04:10:21;101196.00;;;20.00
44429;BMP180;30134;47.866;-4.222;2024-02-14T04:12:47;101194.00;;;20.10
44429;BMP180;30134;47.866;-4.222;2024-02-14T04:15:13;101189.00;;;20.00
44429;BMP180;30134;47.866;-4.222;2024-02-14T04:17:40;101193.00;;;20.10
44429;BMP180;30134;47.866;-4.222;2024-02-14T04:20:06;101183.00;;;20.00
44429;BMP180;30134;47.866;-4.222;2024-02-14T04:22:33;101183.00;;;20.10
44429;BMP180;30134;47.866;-4.222;2024-02-14T04:24:59;101193.00;;;20.00
44429;BMP180;30134;47.866;-4.222;2024-02-14T04:27:25;101197.00;;;20.10
44429;BMP180;30134;47.866;-4.222;2024-02-14T04:29:51;101197.00;;;20.00
44429;BMP180;30134;47.866;-4.222;2024-02-14T04:32:17;101197.00;;;20.00
44429;BMP180;30134;47.866;-4.222;2024-02-14T04:34:45;101199.00;;;20.00
44429;BMP180;30134;47.866;-4.222;2024-02-14T04:37:17;101198.00;;;20.00
44429;BMP180;30134;47.866;-4.222;2024-02-14T04:39:44;101205.00;;;20.00
44429;BMP180;30134;47.866;-4.222;2024-02-14T04:42:11;101216.00;;;20.10
44429;BMP180;30134;47.866;-4.222;2024-02-14T04:44:37;101210.00;;;20.10
44429;BMP180;30134;47.866;-4.222;2024-02-14T04:47:03;101206.00;;;20.10
44429;BMP180;30134;47.866;-4.222;2024-02-14T04:49:29;101213.00;;;20.10
44429;BMP180;30134;47.866;-4.222;2024-02-14T04:51:55;101213.00;;;20.00
44429;BMP180;30134;47.866;-4.222;2024-02-14T04:54:21;101208.00;;;20.00
44429;BMP180;30134;47.866;-4.222;2024-02-14T04:56:47;101215.00;;;20.00
44429;BMP180;30134;47.866;-4.222;2024-02-14T04:59:13;101219.00;;;20.00
44429;BMP180;30134;47.866;-4.222;2024-02-14T05:01:40;101225.00;;;20.00
44429;BMP180;30134;47.866;-4.222;2024-02-14T05:04:06;101224.00;;;20.10
44429;BMP180;30134;47.866;-4.222;2024-02-14T05:06:35;101234.00;;;20.00
44429;BMP180;30134;47.866;-4.222;2024-02-14T05:09:02;101215.00;;;20.00
44429;BMP180;30134;47.866;-4.222;2024-02-14T05:11:28;101227.00;;;20.00
44429;BMP180;30134;47.866;-4.222;2024-02-14T05:13:54;101230.00;;;20.10
44429;BMP180;30134;47.866;-4.222;2024-02-14T05:16:20;101236.00;;;20.00
44429;BMP180;30134;47.866;-4.222;2024-02-14T05:18:46;101224.00;;;20.00
44429;BMP180;30134;47.866;-4.222;2024-02-14T05:21:13;101232.00;;;20.00
44429;BMP180;30134;47.866;-4.222;2024-02-14T05:23:39;101227.00;;;20.10
44429;BMP180;30134;47.866;-4.222;2024-02-14T05:26:06;101231.00;;;20.10
44429;BMP180;30134;47.866;-4.222;2024-02-14T05:28:32;101223.00;;;20.10
44429;BMP180;30134;47.866;-4.222;2024-02-14T05:31:02;101209.00;;;20.10
44429;BMP180;30134;47.866;-4.222;2024-02-14T05:33:28;101215.00;;;20.00
44429;BMP180;30134;47.866;-4.222;2024-02-14T05:35:54;101212.00;;;20.10
44429;BMP180;30134;47.866;-4.222;2024-02-14T05:38:27;101216.00;;;20.00
44429;BMP180;30134;47.866;-4.222;2024-02-14T05:40:55;101222.00;;;20.00
44429;BMP180;30134;47.866;-4.222;2024-02-14T05:43:22;101229.00;;;20.00
44429;BMP180;30134;47.866;-4.222;2024-02-14T05:45:48;101223.00;;;20.10
44429;BMP180;30134;47.866;-4.222;2024-02-14T05:48:14;101227.00;;;20.10
44429;BMP180;30134;47.866;-4.222;2024-02-14T05:50:40;101236.00;;;20.10
44429;BMP180;30134;47.866;-4.222;2024-02-14T05:53:06;101238.00;;;20.10
44429;BMP180;30134;47.866;-4.222;2024-02-14T05:55:32;101233.00;;;20.10
44429;BMP180;30134;47.866;-4.222;2024-02-14T05:57:58;101230.00;;;20.20
44429;BMP180;30134;47.866;-4.222;2024-02-14T06:00:25;101226.00;;;20.10
44429;BMP180;30134;47.866;-4.222;2024-02-14T06:02:51;101222.00;;;20.10
44429;BMP180;30134;47.866;-4.222;2024-02-14T06:05:17;101223.00;;;20.10
44429;BMP180;30134;47.866;-4.222;2024-02-14T06:07:43;101223.00;;;20.10
44429;BMP180;30134;47.866;-4.222;2024-02-14T06:10:11;101220.00;;;20.10
44429;BMP180;30134;47.866;-4.222;2024-02-14T06:12:37;101215.00;;;20.10
44429;BMP180;30134;47.866;-4.222;2024-02-14T06:15:06;101220.00;;;20.10
44429;BMP180;30134;47.866;-4.222;2024-02-14T06:17:33;101223.00;;;20.10
44429;BMP180;30134;47.866;-4.222;2024-02-14T06:19:59;101232.00;;;20.00
44429;BMP180;30134;47.866;-4.222;2024-02-14T06:22:31;101244.00;;;20.10
44429;BMP180;30134;47.866;-4.222;2024-02-14T06:24:59;101235.00;;;20.10
44429;BMP180;30134;47.866;-4.222;2024-02-14T06:27:26;101242.00;;;20.10
44429;BMP180;30134;47.866;-4.222;2024-02-14T06:29:53;101254.00;;;20.10
44429;BMP180;30134;47.866;-4.222;2024-02-14T06:32:20;101249.00;;;20.10
44429;BMP180;30134;47.866;-4.222;2024-02-14T06:34:46;101247.00;;;20.10
44429;BMP180;30134;47.866;-4.222;2024-02-14T06:37:12;101239.00;;;20.10
44429;BMP180;30134;47.866;-4.222;2024-02-14T06:39:45;101245.00;;;20.10
44429;BMP180;30134;47.866;-4.222;2024-02-14T06:42:11;101242.00;;;20.10
44429;BMP180;30134;47.866;-4.222;2024-02-14T06:44:37;101239.00;;;20.10
44429;BMP180;30134;47.866;-4.222;2024-02-14T06:47:03;101245.00;;;20.10
44429;BMP180;30134;47.866;-4.222;2024-02-14T06:49:29;101246.00;;;20.10
44429;BMP180;30134;47.866;-4.222;2024-02-14T06:51:55;101243.00;;;20.10
44429;BMP180;30134;47.866;-4.222;2024-02-14T06:54:21;101243.00;;;20.00
44429;BMP180;30134;47.866;-4.222;2024-02-14T06:56:47;101237.00;;;20.10
44429;BMP180;30134;47.866;-4.222;2024-02-14T06:59:14;101237.00;;;20.10
44429;BMP180;30134;47.866;-4.222;2024-02-14T07:01:40;101245.00;;;20.20
44429;BMP180;30134;47.866;-4.222;2024-02-14T07:04:06;101247.00;;;20.10
44429;BMP180;30134;47.866;-4.222;2024-02-14T07:06:32;101254.00;;;20.10
44429;BMP180;30134;47.866;-4.222;2024-02-14T07:08:58;101260.00;;;20.10
44429;BMP180;30134;47.866;-4.222;2024-02-14T07:11:24;101264.00;;;20.10
44429;BMP180;30134;47.866;-4.222;2024-02-14T07:13:50;101266.00;;;20.10
44429;BMP180;30134;47.866;-4.222;2024-02-14T07:16:16;101263.00;;;20.10
44429;BMP180;30134;47.866;-4.222;2024-02-14T07:18:42;101267.00;;;20.10
44429;BMP180;30134;47.866;-4.222;2024-02-14T07:21:08;101264.00;;;20.10
44429;BMP180;30134;47.866;-4.222;2024-02-14T07:23:34;101269.00;;;20.20
44429;BMP180;30134;47.866;-4.222;2024-02-14T07:26:00;101274.00;;;20.10
44429;BMP180;30134;47.866;-4.222;2024-02-14T07:28:29;101275.00;;;20.10
44429;BMP180;30134;47.866;-4.222;2024-02-14T07:30:55;101277.00;;;20.30
44429;BMP180;30134;47.866;-4.222;2024-02-14T07:33:21;101283.00;;;21.00
44429;BMP180;30134;47.866;-4.222;2024-02-14T07:35:48;101275.00;;;21.20
44429;BMP180;30134;47.866;-4.222;2024-02-14T07:38:14;101283.00;;;21.50
44429;BMP180;30134;47.866;-4.222;2024-02-14T07:40:46;101292.00;;;21.50
44429;BMP180;30134;47.866;-4.222;2024-02-14T07:43:12;101292.00;;;21.50
44429;BMP180;30134;47.866;-4.222;2024-02-14T07:45:38;101295.00;;;21.80
44429;BMP180;30134;47.866;-4.222;2024-02-14T07:48:05;101299.00;;;21.80
44429;BMP180;30134;47.866;-4.222;2024-02-14T07:50:31;101297.00;;;21.70
44429;BMP180;30134;47.866;-4.222;2024-02-14T07:53:06;101296.00;;;21.80
44429;BMP180;30134;47.866;-4.222;2024-02-14T07:55:32;101299.00;;;21.90
44429;BMP180;30134;47.866;-4.222;2024-02-14T07:57:58;101296.00;;;22.00
44429;BMP180;30134;47.866;-4.222;2024-02-14T08:00:25;101301.00;;;22.00
44429;BMP180;30134;47.866;-4.222;2024-02-14T08:02:51;101301.00;;;22.00
44429;BMP180;30134;47.866;-4.222;2024-02-14T08:05:18;101312.00;;;21.90
44429;BMP180;30134;47.866;-4.222;2024-02-14T08:07:47;101305.00;;;21.90
44429;BMP180;30134;47.866;-4.222;2024-02-14T08:10:14;101310.00;;;22.00
44429;BMP180;30134;47.866;-4.222;2024-02-14T08:12:40;101306.00;;;22.10
44429;BMP180;30134;47.866;-4.222;2024-02-14T08:15:06;101297.00;;;22.20
44429;BMP180;30134;47.866;-4.222;2024-02-14T08:17:33;101301.00;;;22.10
44429;BMP180;30134;47.866;-4.222;2024-02-14T08:20:03;101302.00;;;22.20
44429;BMP180;30134;47.866;-4.222;2024-02-14T08:22:30;101305.00;;;22.20
44429;BMP180;30134;47.866;-4.222;2024-02-14T08:24:57;101308.00;;;22.20
44429;BMP180;30134;47.866;-4.222;2024-02-14T08:27:23;101306.00;;;22.10
44429;BMP180;30134;47.866;-4.222;2024-02-14T08:29:49;101307.00;;;22.20
44429;BMP180;30134;47.866;-4.222;2024-02-14T08:32:15;101312.00;;;22.20
44429;BMP180;30134;47.866;-4.222;2024-02-14T08:34:41;101313.00;;;22.20
44429;BMP180;30134;47.866;-4.222;2024-02-14T08:37:07;101315.00;;;22.40
44429;BMP180;30134;47.866;-4.222;2024-02-14T08:39:34;101314.00;;;22.30
44429;BMP180;30134;47.866;-4.222;2024-02-14T08:42:06;101310.00;;;22.30
44429;BMP180;30134;47.866;-4.222;2024-02-14T08:44:36;101314.00;;;22.20
44429;BMP180;30134;47.866;-4.222;2024-02-14T08:47:03;101311.00;;;22.40
44429;BMP180;30134;47.866;-4.222;2024-02-14T08:49:30;101310.00;;;22.70
44429;BMP180;30134;47.866;-4.222;2024-02-14T08:51:57;101315.00;;;22.80
44429;BMP180;30134;47.866;-4.222;2024-02-14T08:54:22;101317.00;;;22.70
44429;BMP180;30134;47.866;-4.222;2024-02-14T08:56:49;101317.00;;;22.80
44429;BMP180;30134;47.866;-4.222;2024-02-14T08:59:15;101322.00;;;22.90
44429;BMP180;30134;47.866;-4.222;2024-02-14T09:01:41;101322.00;;;22.90
44429;BMP180;30134;47.866;-4.222;2024-02-14T09:04:07;101327.00;;;23.00
44429;BMP180;30134;47.866;-4.222;2024-02-14T09:06:33;101317.00;;;23.00
44429;BMP180;30134;47.866;-4.222;2024-02-14T09:08:59;101334.00;;;23.00
44429;BMP180;30134;47.866;-4.222;2024-02-14T09:11:25;101329.00;;;22.90
44429;BMP180;30134;47.866;-4.222;2024-02-14T09:13:52;101330.00;;;22.90
44429;BMP180;30134;47.866;-4.222;2024-02-14T09:16:22;101339.00;;;22.90
44429;BMP180;30134;47.866;-4.222;2024-02-14T09:18:49;101344.00;;;23.00
44429;BMP180;30134;47.866;-4.222;2024-02-14T09:21:15;101342.00;;;22.90
44429;BMP180;30134;47.866;-4.222;2024-02-14T09:23:42;101347.00;;;23.00
44429;BMP180;30134;47.866;-4.222;2024-02-14T09:26:08;101338.00;;;23.20
44429;BMP180;30134;47.866;-4.222;2024-02-14T09:28:34;101341.00;;;23.10
44429;BMP180;30134;47.866;-4.222;2024-02-14T09:31:01;101340.00;;;23.00
44429;BMP180;30134;47.866;-4.222;2024-02-14T09:33:30;101344.00;;;23.10
44429;BMP180;30134;47.866;-4.222;2024-02-14T09:35:56;101338.00;;;23.10
44429;BMP180;30134;47.866;-4.222;2024-02-14T09:38:22;101334.00;;;22.70
44429;BMP180;30134;47.866;-4.222;2024-02-14T09:40:53;101342.00;;;22.90
44429;BMP180;30134;47.866;-4.222;2024-02-14T09:43:38;101334.00;;;23.00
44429;BMP180;30134;47.866;-4.222;2024-02-14T09:46:09;101344.00;;;23.00
44429;BMP180;30134;47.866;-4.222;2024-02-14T09:48:38;101337.00;;;23.00
44429;BMP180;30134;47.866;-4.222;2024-02-14T09:51:07;101350.00;;;23.00
44429;BMP180;30134;47.866;-4.222;2024-02-14T09:53:33;101351.00;;;22.70
44429;BMP180;30134;47.866;-4.222;2024-02-14T09:56:02;101348.00;;;22.60
44429;BMP180;30134;47.866;-4.222;2024-02-14T09:58:28;101347.00;;;22.60
44429;BMP180;30134;47.866;-4.222;2024-02-14T10:00:55;101352.00;;;22.70
44429;BMP180;30134;47.866;-4.222;2024-02-14T10:03:21;101351.00;;;22.70
44429;BMP180;30134;47.866;-4.222;2024-02-14T10:05:47;101350.00;;;22.80
44429;BMP180;30134;47.866;-4.222;2024-02-14T10:08:14;101361.00;;;22.80
44429;BMP180;30134;47.866;-4.222;2024-02-14T10:10:40;101355.00;;;22.80
44429;BMP180;30134;47.866;-4.222;2024-02-14T10:13:07;101355.00;;;22.80
44429;BMP180;30134;47.866;-4.222;2024-02-14T10:15:34;101350.00;;;22.80
44429;BMP180;30134;47.866;-4.222;2024-02-14T10:18:00;101352.00;;;22.90
44429;BMP180;30134;47.866;-4.222;2024-02-14T10:20:26;101358.00;;;22.70
44429;BMP180;30134;47.866;-4.222;2024-02-14T10:23:01;101342.00;;;22.90
44429;BMP180;30134;47.866;-4.222;2024-02-14T10:25:31;101362.00;;;22.80
44429;BMP180;30134;47.866;-4.222;2024-02-14T10:28:04;101363.00;;;23.00
44429;BMP180;30134;47.866;-4.222;2024-02-14T10:30:37;101363.00;;;22.90
44429;BMP180;30134;47.866;-4.222;2024-02-14T10:33:04;101367.00;;;22.70
44429;BMP180;30134;47.866;-4.222;2024-02-14T10:35:30;101362.00;;;22.80
44429;BMP180;30134;47.866;-4.222;2024-02-14T10:38:03;101359.00;;;22.90
44429;BMP180;30134;47.866;-4.222;2024-02-14T10:40:38;101360.00;;;22.80
44429;BMP180;30134;47.866;-4.222;2024-02-14T10:43:08;101364.00;;;22.80
44429;BMP180;30134;47.866;-4.222;2024-02-14T10:45:43;101349.00;;;22.90
44429;BMP180;30134;47.866;-4.222;2024-02-14T10:48:12;101359.00;;;23.00
44429;BMP180;30134;47.866;-4.222;2024-02-14T10:50:41;101360.00;;;22.90
44429;BMP180;30134;47.866;-4.222;2024-02-14T10:53:14;101361.00;;;22.80
44429;BMP180;30134;47.866;-4.222;2024-02-14T10:55:47;101364.00;;;22.80
44429;BMP180;30134;47.866;-4.222;2024-02-14T10:58:16;101349.00;;;22.90
44429;BMP180;30134;47.866;-4.222;2024-02-14T11:00:44;101350.00;;;22.80
44429;BMP180;30134;47.866;-4.222;2024-02-14T11:03:10;101349.00;;;22.80
44429;BMP180;30134;47.866;-4.222;2024-02-14T11:05:48;101340.00;;;22.70
44429;BMP180;30134;47.866;-4.222;2024-02-14T11:08:18;101342.00;;;22.80
44429;BMP180;30134;47.866;-4.222;2024-02-14T11:10:58;101352.00;;;22.80
44429;BMP180;30134;47.866;-4.222;2024-02-14T11:13:30;101359.00;;;22.80
44429;BMP180;30134;47.866;-4.222;2024-02-14T11:16:00;101351.00;;;22.80
44429;BMP180;30134;47.866;-4.222;2024-02-14T11:18:28;101350.00;;;22.80
44429;BMP180;30134;47.866;-4.222;2024-02-14T11:21:03;101357.00;;;22.90
44429;BMP180;30134;47.866;-4.222;2024-02-14T11:23:31;101347.00;;;23.00
44429;BMP180;30134;47.866;-4.222;2024-02-14T11:26:04;101352.00;;;23.00
44429;BMP180;30134;47.866;-4.222;2024-02-14T11:28:30;101348.00;;;23.00
44429;BMP180;30134;47.866;-4.222;2024-02-14T11:31:03;101349.00;;;23.00
44429;BMP180;30134;47.866;-4.222;2024-02-14T11:33:30;101359.00;;;23.00
44429;BMP180;30134;47.866;-4.222;2024-02-14T11:35:56;101348.00;;;23.00
44429;BMP180;30134;47.866;-4.222;2024-02-14T11:38:24;101355.00;;;23.00
44429;BMP180;30134;47.866;-4.222;2024-02-14T11:40:56;101357.00;;;23.00
44429;BMP180;30134;47.866;-4.222;2024-02-14T11:43:23;101345.00;;;23.00
44429;BMP180;30134;47.866;-4.222;2024-02-14T11:45:56;101335.00;;;23.00
44429;BMP180;30134;47.866;-4.222;2024-02-14T11:48:22;101328.00;;;23.00
44429;BMP180;30134;47.866;-4.222;2024-02-14T11:50:55;101323.00;;;23.10
44429;BMP180;30134;47.866;-4.222;2024-02-14T11:53:21;101324.00;;;23.00
44429;BMP180;30134;47.866;-4.222;2024-02-14T11:55:48;101329.00;;;23.10
44429;BMP180;30134;47.866;-4.222;2024-02-14T11:58:16;101324.00;;;23.10
44429;BMP180;30134;47.866;-4.222;2024-02-14T12:00:47;101323.00;;;23.10
44429;BMP180;30134;47.866;-4.222;2024-02-14T12:05:43;101324.00;;;23.00
44429;BMP180;30134;47.866;-4.222;2024-02-14T12:08:10;101328.00;;;23.00
44429;BMP180;30134;47.866;-4.222;2024-02-14T12:10:37;101314.00;;;23.00
44429;BMP180;30134;47.866;-4.222;2024-02-14T12:13:10;101307.00;;;23.00
44429;BMP180;30134;47.866;-4.222;2024-02-14T12:15:49;101307.00;;;23.00
44429;BMP180;30134;47.866;-4.222;2024-02-14T12:18:22;101305.00;;;23.10
44429;BMP180;30134;47.866;-4.222;2024-02-14T12:20:49;101312.00;;;23.10
44429;BMP180;30134;47.866;-4.222;2024-02-14T12:23:18;101288.00;;;23.10
44429;BMP180;30134;47.866;-4.222;2024-02-14T12:25:45;101300.00;;;23.50
44429;BMP180;30134;47.866;-4.222;2024-02-14T12:28:19;101304.00;;;23.60
44429;BMP180;30134;47.866;-4.222;2024-02-14T12:30:52;101300.00;;;23.50
44429;BMP180;30134;47.866;-4.222;2024-02-14T12:33:22;101288.00;;;23.60
44429;BMP180;30134;47.866;-4.222;2024-02-14T12:35:54;101293.00;;;23.80
44429;BMP180;30134;47.866;-4.222;2024-02-14T12:38:21;101297.00;;;23.60
44429;BMP180;30134;47.866;-4.222;2024-02-14T12:40:49;101288.00;;;23.70
44429;BMP180;30134;47.866;-4.222;2024-02-14T12:43:16;101296.00;;;23.70
44429;BMP180;30134;47.866;-4.222;2024-02-14T12:45:43;101293.00;;;23.70
44429;BMP180;30134;47.866;-4.222;2024-02-14T12:48:23;101287.00;;;23.60
44429;BMP180;30134;47.866;-4.222;2024-02-14T12:50:52;101282.00;;;23.60
44429;BMP180;30134;47.866;-4.222;2024-02-14T12:53:18;101277.00;;;23.60
44429;BMP180;30134;47.866;-4.222;2024-02-14T12:55:46;101278.00;;;23.60
44429;BMP180;30134;47.866;-4.222;2024-02-14T12:58:12;101281.00;;;23.60
44429;BMP180;30134;47.866;-4.222;2024-02-14T13:00:38;101286.00;;;23.80
44429;BMP180;30134;47.866;-4.222;2024-02-14T13:03:04;101279.00;;;23.80
44429;BMP180;30134;47.866;-4.222;2024-02-14T13:05:31;101270.00;;;23.70
44429;BMP180;30134;47.866;-4.222;2024-02-14T13:07:57;101261.00;;;23.60
44429;BMP180;30134;47.866;-4.222;2024-02-14T13:10:23;101251.00;;;23.60
44429;BMP180;30134;47.866;-4.222;2024-02-14T13:12:49;101252.00;;;23.70
44429;BMP180;30134;47.866;-4.222;2024-02-14T13:15:16;101247.00;;;23.70
44429;BMP180;30134;47.866;-4.222;2024-02-14T13:17:42;101250.00;;;23.70
44429;BMP180;30134;47.866;-4.222;2024-02-14T13:20:09;101228.00;;;23.80
44429;BMP180;30134;47.866;-4.222;2024-02-14T13:22:37;101229.00;;;23.60
44429;BMP180;30134;47.866;-4.222;2024-02-14T13:25:04;101223.00;;;23.70
44429;BMP180;30134;47.866;-4.222;2024-02-14T13:27:30;101234.00;;;23.90
44429;BMP180;30134;47.866;-4.222;2024-02-14T13:29:56;101238.00;;;23.80
44429;BMP180;30134;47.866;-4.222;2024-02-14T13:32:22;101233.00;;;23.80
44429;BMP180;30134;47.866;-4.222;2024-02-14T13:34:48;101229.00;;;23.80
44429;BMP180;30134;47.866;-4.222;2024-02-14T13:37:14;101228.00;;;23.80
44429;BMP180;30134;47.866;-4.222;2024-02-14T13:39:41;101223.00;;;23.80
44429;BMP180;30134;47.866;-4.222;2024-02-14T13:42:07;101222.00;;;23.70
44429;BMP180;30134;47.866;-4.222;2024-02-14T13:44:34;101227.00;;;23.80
44429;BMP180;30134;47.866;-4.222;2024-02-14T13:47:00;101224.00;;;23.80